createdAt,value
2019-03-13T00:00:44.818Z,5.83
2019-03-13T00:03:15.483Z,5.90
2019-03-13T00:05:45.395Z,5.17
2019-03-13T00:08:15.611Z,5.23
2019-03-13T00:10:46.020Z,4.80
2019-03-13T00:13:16.015Z,4.53
2019-03-13T00:15:49.681Z,5.23
2019-03-13T00:18:19.780Z,3.93
2019-03-13T00:20:49.791Z,4.80
2019-03-13T00:23:19.715Z,6.43
2019-03-13T00:25:49.620Z,5.00
2019-03-13T00:28:19.631Z,5.73
2019-03-13T00:30:49.542Z,6.33
2019-03-13T00:33:19.462Z,4.70
2019-03-13T00:35:49.862Z,5.27
2019-03-13T00:38:19.772Z,3.67
2019-03-13T00:40:49.688Z,7.97
2019-03-13T00:43:19.599Z,4.50
2019-03-13T00:45:49.611Z,7.10
2019-03-13T00:48:20.214Z,4.80
2019-03-13T00:50:50.522Z,4.67
2019-03-13T00:53:20.433Z,6.33
2019-03-13T00:55:50.349Z,4.87
2019-03-13T00:58:20.288Z,6.90
2019-03-13T01:00:51.945Z,4.17
2019-03-13T01:03:32.776Z,4.60
2019-03-13T01:06:07.401Z,5.23
2019-03-13T01:08:37.315Z,7.03
2019-03-13T01:11:07.425Z,7.30
2019-03-13T01:13:37.436Z,5.03
2019-03-13T01:16:07.349Z,4.63
2019-03-13T01:18:37.558Z,6.03
2019-03-13T01:21:07.769Z,5.83
2019-03-13T01:23:37.874Z,5.37
2019-03-13T01:26:07.789Z,5.43
2019-03-13T01:28:37.804Z,4.83
2019-03-13T01:31:24.624Z,5.60
2019-03-13T01:33:56.113Z,4.70
2019-03-13T01:36:25.925Z,6.30
2019-03-13T01:38:55.835Z,6.43
2019-03-13T01:41:25.750Z,6.80
2019-03-13T01:43:55.761Z,7.73
2019-03-13T01:46:25.879Z,7.50
2019-03-13T01:48:55.790Z,5.97
2019-03-13T01:51:26.098Z,9.73
2019-03-13T01:53:56.302Z,6.23
2019-03-13T01:56:26.213Z,6.20
2019-03-13T01:58:56.128Z,3.67
2019-03-13T02:01:26.043Z,7.63
2019-03-13T02:03:56.018Z,10.10
2019-03-13T02:06:26.161Z,6.53
2019-03-13T02:08:56.076Z,6.13
2019-03-13T02:11:25.989Z,5.83
2019-03-13T02:13:55.904Z,7.40
2019-03-13T02:16:26.011Z,7.73
2019-03-13T02:18:55.925Z,6.70
2019-03-13T02:21:25.840Z,7.63
2019-03-13T02:23:55.948Z,5.33
2019-03-13T02:26:26.059Z,8.83
2019-03-13T02:28:55.974Z,7.17
2019-03-13T02:31:26.578Z,7.23
2019-03-13T02:33:56.494Z,6.13
2019-03-13T02:36:26.500Z,6.97
2019-03-13T02:38:56.416Z,6.77
2019-03-13T02:41:26.722Z,5.90
2019-03-13T02:43:56.674Z,5.73
2019-03-13T02:46:26.689Z,7.13
2019-03-13T02:48:56.760Z,6.53
2019-03-13T02:51:26.964Z,5.83
2019-03-13T02:53:56.879Z,5.00
2019-03-13T02:56:26.795Z,4.93
2019-03-13T02:58:56.707Z,5.27
2019-03-13T03:01:31.241Z,8.83
2019-03-13T03:04:02.751Z,6.63
2019-03-13T03:06:32.520Z,6.30
2019-03-13T03:09:04.319Z,6.50
2019-03-13T03:11:34.232Z,7.83
2019-03-13T03:14:04.150Z,10.33
2019-03-13T03:16:34.063Z,5.27
2019-03-13T03:19:03.972Z,8.40
2019-03-13T03:21:33.886Z,6.97
2019-03-13T03:24:03.804Z,6.83
2019-03-13T03:26:33.719Z,10.80
2019-03-13T03:29:03.738Z,7.27
2019-03-13T03:31:34.131Z,6.03
2019-03-13T03:34:04.724Z,6.53
2019-03-13T03:36:34.652Z,9.77
2019-03-13T03:39:05.951Z,8.23
2019-03-13T03:41:35.951Z,9.73
2019-03-13T03:44:05.860Z,8.13
2019-03-13T03:46:35.780Z,8.13
2019-03-13T03:49:05.688Z,6.73
2019-03-13T03:51:35.600Z,7.63
2019-03-13T03:54:05.612Z,5.67
2019-03-13T03:56:35.736Z,9.23
2019-03-13T03:59:05.670Z,8.07
2019-03-13T04:01:36.143Z,5.30
2019-03-13T04:04:06.057Z,12.77
2019-03-13T04:06:36.061Z,7.83
2019-03-13T04:09:07.558Z,7.83
2019-03-13T04:11:37.665Z,7.33
2019-03-13T04:14:07.582Z,11.87
2019-03-13T04:16:37.493Z,7.37
2019-03-13T04:19:07.798Z,7.97
2019-03-13T04:21:37.609Z,5.57
2019-03-13T04:24:07.528Z,8.93
2019-03-13T04:26:37.647Z,10.40
2019-03-13T04:29:07.550Z,8.63
2019-03-13T04:31:37.560Z,7.57
2019-03-13T04:34:07.590Z,7.00
2019-03-13T04:36:37.491Z,7.60
2019-03-13T04:39:07.791Z,13.77
2019-03-13T04:41:37.703Z,10.30
2019-03-13T04:44:07.815Z,8.40
2019-03-13T04:46:40.576Z,7.00
2019-03-13T04:49:10.492Z,6.30
2019-03-13T04:51:40.603Z,11.40
2019-03-13T04:54:10.617Z,10.37
2019-03-13T04:56:40.826Z,10.40
2019-03-13T04:59:10.834Z,13.73
2019-03-13T05:01:41.047Z,11.03
2019-03-13T05:04:11.249Z,11.07
2019-03-13T05:06:41.754Z,8.97
2019-03-13T05:09:11.676Z,12.20
2019-03-13T05:11:41.786Z,7.53
2019-03-13T05:14:11.585Z,12.83
2019-03-13T05:16:41.510Z,11.07
2019-03-13T05:19:11.524Z,14.70
2019-03-13T05:21:41.432Z,12.37
2019-03-13T05:24:11.766Z,10.80
2019-03-13T05:26:41.748Z,14.53
2019-03-13T05:29:11.543Z,11.20
2019-03-13T05:31:41.478Z,11.27
2019-03-13T05:34:11.271Z,9.93
2019-03-13T05:36:41.475Z,6.47
2019-03-13T05:39:11.711Z,12.07
2019-03-13T05:41:43.152Z,12.47
2019-03-13T05:44:13.111Z,7.63
2019-03-13T05:46:43.218Z,8.43
2019-03-13T05:49:13.131Z,12.97
2019-03-13T05:51:43.050Z,13.40
2019-03-13T05:54:12.958Z,10.97
2019-03-13T05:56:42.884Z,8.70
2019-03-13T05:59:13.081Z,11.47
2019-03-13T06:01:42.994Z,6.93
2019-03-13T06:04:13.498Z,7.07
2019-03-13T06:06:43.512Z,10.87
2019-03-13T06:09:13.725Z,12.47
2019-03-13T06:11:43.694Z,11.90
2019-03-13T06:14:13.839Z,12.87
2019-03-13T06:16:43.757Z,10.03
2019-03-13T06:19:13.766Z,10.73
2019-03-13T06:21:43.876Z,8.10
2019-03-13T06:24:13.718Z,14.23
2019-03-13T06:26:43.790Z,12.77
2019-03-13T06:29:13.909Z,14.97
2019-03-13T06:31:43.825Z,12.90
2019-03-13T06:34:14.132Z,13.53
2019-03-13T06:36:44.045Z,9.10
2019-03-13T06:39:13.958Z,13.33
2019-03-13T06:41:44.066Z,9.23
2019-03-13T06:44:13.981Z,10.43
2019-03-13T06:46:43.897Z,12.07
2019-03-13T06:49:14.400Z,12.87
2019-03-13T06:51:44.311Z,12.93
2019-03-13T06:54:14.226Z,10.30
2019-03-13T06:56:44.138Z,13.83
2019-03-13T06:59:18.382Z,10.27
2019-03-13T07:02:02.053Z,13.07
2019-03-13T07:04:49.959Z,17.17
2019-03-13T07:07:39.824Z,10.13
2019-03-13T07:10:21.144Z,13.57
2019-03-13T07:12:58.233Z,8.97
2019-03-13T07:15:41.418Z,10.33
2019-03-13T07:18:16.051Z,9.93
2019-03-13T07:20:53.727Z,13.10
2019-03-13T07:23:40.450Z,13.83
2019-03-13T07:26:14.889Z,11.17
2019-03-13T07:28:52.407Z,10.30
2019-03-13T07:31:34.966Z,9.83
2019-03-13T07:34:12.551Z,10.67
2019-03-13T07:36:49.958Z,8.77
2019-03-13T07:39:27.806Z,15.87
2019-03-13T07:42:15.649Z,8.53
2019-03-13T07:44:47.101Z,11.20
2019-03-13T07:47:30.973Z,10.57
2019-03-13T07:50:08.256Z,12.53
2019-03-13T07:52:45.543Z,8.43
2019-03-13T07:55:29.232Z,13.77
2019-03-13T07:58:03.854Z,9.27
2019-03-13T08:00:44.730Z,10.47
2019-03-13T08:03:25.509Z,13.03
2019-03-13T08:06:13.403Z,10.23
2019-03-13T08:08:53.933Z,8.73
2019-03-13T08:11:31.221Z,8.27
2019-03-13T08:14:14.506Z,10.20
2019-03-13T08:16:58.178Z,6.50
2019-03-13T08:19:45.001Z,5.60
2019-03-13T08:22:32.605Z,9.67
2019-03-13T08:25:08.197Z,9.57
2019-03-13T08:27:40.600Z,6.73
2019-03-13T08:30:21.918Z,6.93
2019-03-13T08:33:09.586Z,5.83
2019-03-13T08:35:56.636Z,6.00
2019-03-13T08:38:40.410Z,7.83
2019-03-13T08:41:17.797Z,5.67
2019-03-13T08:43:58.226Z,7.43
2019-03-13T08:46:32.765Z,9.13
2019-03-13T08:49:06.862Z,7.10
2019-03-13T08:51:44.090Z,7.00
2019-03-13T08:54:15.629Z,7.27
2019-03-13T08:56:50.404Z,8.07
2019-03-13T08:59:30.936Z,7.27
2019-03-13T09:02:02.528Z,6.27
2019-03-13T09:04:51.996Z,6.37
2019-03-13T09:07:29.362Z,9.93
2019-03-13T09:10:00.865Z,6.40
2019-03-13T09:12:32.235Z,4.43
2019-03-13T09:15:03.841Z,8.40
2019-03-13T09:17:35.217Z,6.17
2019-03-13T09:20:16.546Z,5.53
2019-03-13T09:22:47.927Z,7.33
2019-03-13T09:25:34.263Z,6.23
2019-03-13T09:28:22.169Z,9.13
2019-03-13T09:30:59.866Z,7.97
2019-03-13T09:33:46.276Z,7.60
2019-03-13T09:36:18.058Z,10.23
2019-03-13T09:39:05.663Z,9.53
2019-03-13T09:41:40.001Z,8.30
2019-03-13T09:44:11.594Z,6.00
2019-03-13T09:46:59.488Z,6.60
2019-03-13T09:49:33.445Z,7.87
2019-03-13T09:52:05.030Z,6.57
2019-03-13T09:54:48.598Z,4.27
2019-03-13T09:57:35.416Z,8.70
2019-03-13T10:00:26.959Z,5.03
2019-03-13T10:03:01.371Z,8.50
2019-03-13T10:05:49.394Z,6.20
2019-03-13T10:08:39.362Z,7.00
2019-03-13T10:11:10.846Z,6.43
2019-03-13T10:13:58.259Z,8.40
2019-03-13T10:16:39.102Z,7.90
2019-03-13T10:19:10.464Z,5.93
2019-03-13T10:21:41.854Z,6.67
2019-03-13T10:24:22.296Z,8.30
2019-03-13T10:27:03.024Z,8.37
2019-03-13T10:29:37.062Z,5.87
2019-03-13T10:32:12.104Z,9.37
2019-03-13T10:34:55.962Z,9.27
2019-03-13T10:37:33.252Z,7.80
2019-03-13T10:40:04.930Z,7.47
2019-03-13T10:42:45.467Z,6.70
2019-03-13T10:45:28.550Z,12.10
2019-03-13T10:48:09.273Z,8.33
2019-03-13T10:50:46.765Z,11.33
2019-03-13T10:53:36.627Z,10.93
2019-03-13T10:56:14.117Z,10.77
2019-03-13T10:58:48.194Z,7.37
2019-03-13T11:01:19.738Z,6.30
2019-03-13T11:04:00.543Z,9.73
2019-03-13T11:06:54.052Z,7.57
2019-03-13T11:09:26.734Z,9.30
2019-03-13T11:11:59.744Z,8.97
2019-03-13T11:14:37.768Z,11.03
2019-03-13T11:17:09.369Z,11.33
2019-03-13T11:19:50.077Z,9.00
2019-03-13T11:22:37.700Z,12.63
2019-03-13T11:25:30.020Z,7.87
2019-03-13T11:28:07.992Z,7.17
2019-03-13T11:30:39.471Z,9.63
2019-03-13T11:33:11.160Z,7.13
2019-03-13T11:35:54.833Z,5.73
2019-03-13T11:38:42.243Z,7.93
2019-03-13T11:41:22.673Z,8.73
2019-03-13T11:44:10.282Z,7.33
2019-03-13T11:46:41.871Z,8.93
2019-03-13T11:49:31.637Z,7.60
2019-03-13T11:52:03.128Z,5.63
2019-03-13T11:54:34.709Z,6.50
2019-03-13T11:57:09.254Z,10.23
2019-03-13T11:59:40.829Z,4.83
2019-03-13T12:02:18.407Z,6.10
2019-03-13T12:05:08.079Z,4.53
2019-03-13T12:07:45.566Z,5.20
2019-03-13T12:10:23.951Z,7.17
2019-03-13T12:13:04.759Z,7.03
2019-03-13T12:15:38.797Z,6.00
2019-03-13T12:18:13.148Z,5.47
2019-03-13T12:20:44.524Z,4.93
2019-03-13T12:23:18.777Z,4.10
2019-03-13T12:26:06.468Z,6.07
2019-03-13T12:28:53.294Z,5.17
2019-03-13T12:31:42.182Z,4.73
2019-03-13T12:34:13.721Z,3.83
2019-03-13T12:36:47.803Z,2.13
2019-03-13T12:39:19.388Z,4.13
2019-03-13T12:42:07.397Z,2.47
2019-03-13T12:44:41.922Z,4.00
2019-03-13T12:47:31.694Z,5.13
2019-03-13T12:50:12.030Z,4.67
2019-03-13T12:52:52.755Z,4.37
2019-03-13T12:55:24.343Z,3.27
2019-03-13T12:58:01.526Z,2.13
2019-03-13T13:00:33.338Z,3.13
2019-03-13T13:03:05.288Z,4.07
2019-03-13T13:05:54.994Z,3.10
2019-03-13T13:08:35.487Z,2.43
2019-03-13T13:11:12.773Z,1.60
2019-03-13T13:14:00.384Z,2.27
2019-03-13T13:16:43.272Z,2.23
2019-03-13T13:19:13.580Z,2.57
2019-03-13T13:21:43.715Z,1.87
2019-03-13T13:24:13.599Z,1.97
2019-03-13T13:26:43.815Z,3.80
2019-03-13T13:29:13.723Z,4.50
2019-03-13T13:31:43.881Z,3.57
2019-03-13T13:34:13.845Z,3.20
2019-03-13T13:36:43.768Z,3.87
2019-03-13T13:39:14.170Z,2.50
2019-03-13T13:41:44.177Z,3.67
2019-03-13T13:44:14.343Z,5.00
2019-03-13T13:46:44.718Z,2.13
2019-03-13T13:49:14.997Z,4.40
2019-03-13T13:51:45.007Z,5.20
2019-03-13T13:54:14.944Z,3.87
2019-03-13T13:56:46.703Z,5.13
2019-03-13T13:59:16.717Z,4.80
2019-03-13T14:01:46.932Z,5.60
2019-03-13T14:04:17.034Z,5.10
2019-03-13T14:06:47.047Z,6.57
2019-03-13T14:09:17.363Z,3.33
2019-03-13T14:11:47.361Z,4.07
2019-03-13T14:14:17.624Z,4.23
2019-03-13T14:16:47.696Z,3.70
2019-03-13T14:19:17.693Z,6.90
2019-03-13T14:21:47.854Z,6.10
2019-03-13T14:24:18.080Z,3.73
2019-03-13T14:26:48.431Z,3.50
2019-03-13T14:29:18.330Z,3.07
2019-03-13T14:31:48.738Z,2.73
2019-03-13T14:34:18.951Z,7.43
2019-03-13T14:36:49.115Z,3.40
2019-03-13T14:39:19.075Z,3.23
2019-03-13T14:41:49.180Z,2.57
2019-03-13T14:44:19.687Z,4.00
2019-03-13T14:46:49.680Z,2.43
2019-03-13T14:49:20.120Z,4.53
2019-03-13T14:51:50.118Z,1.73
2019-03-13T14:54:20.021Z,3.97
2019-03-13T14:56:50.232Z,2.70
2019-03-13T14:59:20.243Z,3.43
2019-03-13T15:01:50.152Z,5.30
2019-03-13T15:04:20.198Z,3.97
2019-03-13T15:06:50.280Z,4.60
2019-03-13T15:09:20.265Z,5.23
2019-03-13T15:11:50.297Z,5.33
2019-03-13T15:14:20.309Z,4.83
2019-03-13T15:16:53.206Z,7.70
2019-03-13T15:19:22.422Z,3.50
2019-03-13T15:21:52.312Z,5.13
2019-03-13T15:24:22.320Z,4.47
2019-03-13T15:26:52.627Z,3.43
2019-03-13T15:29:23.237Z,4.03
2019-03-13T15:31:53.029Z,5.27
2019-03-13T15:34:23.252Z,3.67
2019-03-13T15:36:53.167Z,5.23
2019-03-13T15:39:23.608Z,3.23
2019-03-13T15:41:53.585Z,3.83
2019-03-13T15:44:23.429Z,2.50
2019-03-13T15:46:53.464Z,4.00
2019-03-13T15:49:23.442Z,3.67
2019-03-13T15:51:54.128Z,2.70
2019-03-13T15:54:24.041Z,2.80
2019-03-13T15:56:54.145Z,3.63
2019-03-13T15:59:24.158Z,3.43
2019-03-13T16:01:54.085Z,3.17
2019-03-13T16:04:23.884Z,3.47
2019-03-13T16:06:53.726Z,3.80
2019-03-13T16:09:24.400Z,5.27
2019-03-13T16:11:54.616Z,5.00
2019-03-13T16:14:24.625Z,3.80
2019-03-13T16:16:54.637Z,5.03
2019-03-13T16:19:24.662Z,5.27
2019-03-13T16:21:54.580Z,5.30
2019-03-13T16:24:24.568Z,5.10
2019-03-13T16:26:54.777Z,4.43
2019-03-13T16:29:24.886Z,5.63
2019-03-13T16:31:55.766Z,6.50
2019-03-13T16:34:25.797Z,6.27
2019-03-13T16:36:55.803Z,8.53
2019-03-13T16:39:25.757Z,8.70
2019-03-13T16:41:56.128Z,7.50
2019-03-13T16:44:26.144Z,5.67
2019-03-13T16:46:55.945Z,4.17
2019-03-13T16:49:26.258Z,4.27
2019-03-13T16:51:56.510Z,3.43
2019-03-13T16:54:27.362Z,2.50
2019-03-13T16:56:57.321Z,2.27
2019-03-13T16:59:27.487Z,3.87
2019-03-13T17:01:57.399Z,1.93
2019-03-13T17:04:27.513Z,4.53
2019-03-13T17:06:57.439Z,1.63
2019-03-13T17:09:27.529Z,2.80
2019-03-13T17:11:57.839Z,1.97
2019-03-13T17:14:27.752Z,2.77
2019-03-13T17:16:57.961Z,3.67
2019-03-13T17:19:27.872Z,2.00
2019-03-13T17:21:58.182Z,3.27
2019-03-13T17:24:28.585Z,7.50
2019-03-13T17:26:58.817Z,4.47
2019-03-13T17:29:29.196Z,4.37
2019-03-13T17:31:59.330Z,2.77
2019-03-13T17:34:30.505Z,2.57
2019-03-13T17:37:00.417Z,3.77
2019-03-13T17:39:30.332Z,5.57
2019-03-13T17:42:00.386Z,4.83
2019-03-13T17:44:30.345Z,3.00
2019-03-13T17:47:01.066Z,4.73
2019-03-13T17:49:31.182Z,4.23
2019-03-13T17:52:00.981Z,6.13
2019-03-13T17:54:30.884Z,4.80
2019-03-13T17:57:00.814Z,3.07
2019-03-13T17:59:30.816Z,3.80
2019-03-13T18:02:00.729Z,5.63
2019-03-13T18:04:31.129Z,6.03
2019-03-13T18:07:01.047Z,8.47
2019-03-13T18:09:30.919Z,5.20
2019-03-13T18:12:01.367Z,7.40
2019-03-13T18:14:32.323Z,5.93
2019-03-13T18:17:02.269Z,6.57
2019-03-13T18:19:32.181Z,7.40
2019-03-13T18:22:02.111Z,6.93
2019-03-13T18:24:32.010Z,6.97
2019-03-13T18:27:02.250Z,5.83
2019-03-13T18:29:32.327Z,6.03
2019-03-13T18:32:02.341Z,6.90
2019-03-13T18:34:32.842Z,7.03
2019-03-13T18:37:02.855Z,9.87
2019-03-13T18:39:32.770Z,7.30
2019-03-13T18:42:02.690Z,6.83
2019-03-13T18:44:32.708Z,6.00
2019-03-13T18:47:02.549Z,6.87
2019-03-13T18:49:32.524Z,8.47
2019-03-13T18:52:02.631Z,7.67
2019-03-13T18:54:32.677Z,8.97
2019-03-13T18:57:02.566Z,6.73
2019-03-13T18:59:32.482Z,8.60
2019-03-13T19:02:02.347Z,7.30
2019-03-13T19:04:32.692Z,7.47
2019-03-13T19:07:02.627Z,8.33
2019-03-13T19:09:33.103Z,7.83
2019-03-13T19:12:03.136Z,9.67
2019-03-13T19:14:33.029Z,9.43
2019-03-13T19:17:03.255Z,8.57
2019-03-13T19:19:33.252Z,6.93
2019-03-13T19:22:03.361Z,11.43
2019-03-13T19:24:33.369Z,8.83
2019-03-13T19:27:04.097Z,8.33
2019-03-13T19:29:34.393Z,10.72
2019-03-13T19:32:04.493Z,11.27
2019-03-13T19:34:34.402Z,10.17
2019-03-13T19:37:04.512Z,10.57
2019-03-13T19:39:34.426Z,9.30
2019-03-13T19:42:04.442Z,10.13
2019-03-13T19:44:34.735Z,18.13
2019-03-13T19:47:04.765Z,11.70
2019-03-13T19:49:34.869Z,11.23
2019-03-13T19:52:04.778Z,10.00
2019-03-13T19:54:34.888Z,11.53
2019-03-13T19:57:05.195Z,12.20
2019-03-13T19:59:36.916Z,11.60
2019-03-13T20:02:07.483Z,6.77
2019-03-13T20:04:46.978Z,9.73
2019-03-13T20:07:09.280Z,11.27
2019-03-13T20:09:39.185Z,9.93
2019-03-13T20:12:09.051Z,8.20
2019-03-13T20:14:38.878Z,8.50
2019-03-13T20:17:08.859Z,9.10
2019-03-13T20:19:38.846Z,9.43
2019-03-13T20:22:09.146Z,8.67
2019-03-13T20:24:39.287Z,8.43
2019-03-13T20:27:09.085Z,11.63
2019-03-13T20:29:39.182Z,11.40
2019-03-13T20:32:09.190Z,9.13
2019-03-13T20:34:39.309Z,8.60
2019-03-13T20:37:09.216Z,9.40
2019-03-13T20:39:39.424Z,8.77
2019-03-13T20:42:09.534Z,9.13
2019-03-13T20:44:39.448Z,10.70
2019-03-13T20:47:09.761Z,9.87
2019-03-13T20:49:39.767Z,8.47
2019-03-13T20:52:09.785Z,11.37
2019-03-13T20:54:39.691Z,9.90
2019-03-13T20:57:09.606Z,11.07
2019-03-13T20:59:39.672Z,11.33
2019-03-13T21:02:10.022Z,8.20
2019-03-13T21:04:40.034Z,11.90
2019-03-13T21:07:10.051Z,7.30
2019-03-13T21:09:39.896Z,11.53
2019-03-13T21:12:10.268Z,14.60
2019-03-13T21:14:40.481Z,12.60
2019-03-13T21:17:10.611Z,14.17
2019-03-13T21:19:40.596Z,8.37
2019-03-13T21:22:11.198Z,10.63
2019-03-13T21:24:41.209Z,13.73
2019-03-13T21:27:11.122Z,8.27
2019-03-13T21:29:41.433Z,10.47
2019-03-13T21:32:11.529Z,11.47
2019-03-13T21:34:41.549Z,8.47
2019-03-13T21:37:11.762Z,12.23
2019-03-13T21:39:41.870Z,8.63
2019-03-13T21:42:12.078Z,7.60
2019-03-13T21:44:42.712Z,8.57
2019-03-13T21:47:12.692Z,10.50
2019-03-13T21:49:42.705Z,11.10
2019-03-13T21:52:12.613Z,8.47
2019-03-13T21:54:42.728Z,8.80
2019-03-13T21:57:12.637Z,7.73
2019-03-13T21:59:42.554Z,10.63
2019-03-13T22:02:12.685Z,12.13
2019-03-13T22:04:42.772Z,10.63
2019-03-13T22:07:12.689Z,10.17
2019-03-13T22:09:42.698Z,6.23
2019-03-13T22:12:13.185Z,12.17
2019-03-13T22:14:43.458Z,9.57
2019-03-13T22:17:13.959Z,7.60
2019-03-13T22:19:44.030Z,10.77
2019-03-13T22:22:13.939Z,14.27
2019-03-13T22:24:43.849Z,10.03
2019-03-13T22:27:15.010Z,9.67
2019-03-13T22:29:45.397Z,9.90
2019-03-13T22:32:15.654Z,10.57
2019-03-13T22:34:45.568Z,12.50
2019-03-13T22:37:15.582Z,11.77
2019-03-13T22:39:45.886Z,12.50
2019-03-13T22:42:15.820Z,15.37
2019-03-13T22:44:46.025Z,9.87
2019-03-13T22:47:15.921Z,10.83
2019-03-13T22:49:45.834Z,11.90
2019-03-13T22:52:16.239Z,12.90
2019-03-13T22:54:46.151Z,15.00
2019-03-13T22:57:16.166Z,11.90
2019-03-13T22:59:46.078Z,11.20
2019-03-13T23:02:19.078Z,10.33
2019-03-13T23:04:49.344Z,18.03
2019-03-13T23:07:19.357Z,10.57
2019-03-13T23:09:49.720Z,12.40
2019-03-13T23:12:19.610Z,10.77
2019-03-13T23:14:49.588Z,14.67
2019-03-13T23:17:19.983Z,13.03
2019-03-13T23:19:49.889Z,7.47
2019-03-13T23:22:19.821Z,14.20
2019-03-13T23:24:49.932Z,12.13
2019-03-13T23:27:19.844Z,16.97
2019-03-13T23:29:50.242Z,14.73
2019-03-13T23:32:20.163Z,15.37
2019-03-13T23:34:50.273Z,14.03
2019-03-13T23:37:20.186Z,11.60
2019-03-13T23:39:50.491Z,15.40
2019-03-13T23:42:20.896Z,10.67
2019-03-13T23:44:50.814Z,13.73
2019-03-13T23:47:20.727Z,11.53
2019-03-13T23:49:50.838Z,14.30
2019-03-13T23:52:21.253Z,14.00
2019-03-13T23:54:51.201Z,16.60
2019-03-13T23:57:21.026Z,11.10
2019-03-13T23:59:50.981Z,13.17
